createdAt,value
2022-08-20T00:01:01.655Z,13.07
2022-08-20T00:03:33.445Z,10.27
2022-08-20T00:06:05.147Z,9.98
2022-08-20T00:08:34.149Z,10.63
2022-08-20T00:11:05.888Z,15.70
2022-08-20T00:13:38.167Z,18.63
2022-08-20T00:16:07.023Z,18.25
2022-08-20T00:18:37.878Z,19.58
2022-08-20T00:21:09.790Z,21.98
2022-08-20T00:23:39.242Z,18.77
2022-08-20T00:26:11.291Z,17.05
2022-08-20T00:28:40.738Z,16.75
2022-08-20T00:31:12.242Z,16.55
2022-08-20T00:33:41.346Z,16.45
2022-08-20T00:36:12.303Z,16.50
2022-08-20T00:38:43.802Z,16.08
2022-08-20T00:41:17.647Z,15.30
2022-08-20T00:43:49.310Z,12.80
2022-08-20T00:46:22.243Z,12.65
2022-08-20T00:49:01.791Z,12.07
2022-08-20T00:51:38.390Z,13.90
2022-08-20T00:54:11.130Z,14.85
2022-08-20T00:56:44.185Z,14.98
2022-08-20T00:59:17.083Z,14.82
2022-08-20T01:01:55.551Z,15.30
2022-08-20T01:04:26.727Z,14.88
2022-08-20T01:06:55.639Z,14.07
2022-08-20T01:09:50.036Z,13.98
2022-08-20T01:12:17.922Z,18.02
2022-08-20T01:14:48.116Z,20.55
2022-08-20T01:17:20.427Z,20.63
2022-08-20T01:19:53.863Z,19.73
2022-08-20T01:22:46.966Z,21.15
2022-08-20T01:25:25.170Z,17.90
2022-08-20T01:27:56.494Z,18.45
2022-08-20T01:30:28.622Z,17.67
2022-08-20T01:32:57.552Z,16.45
2022-08-20T01:35:26.831Z,14.38
2022-08-20T01:37:55.882Z,14.35
2022-08-20T01:40:41.078Z,14.85
2022-08-20T01:43:11.539Z,14.43
2022-08-20T01:45:43.182Z,14.50
2022-08-20T01:48:14.387Z,14.00
2022-08-20T01:50:49.040Z,13.32
2022-08-20T01:53:22.340Z,15.18
2022-08-20T01:55:51.343Z,13.32
2022-08-20T01:58:22.289Z,13.15
2022-08-20T02:00:50.870Z,14.15
2022-08-20T02:03:19.448Z,13.20
2022-08-20T02:05:48.031Z,12.32
2022-08-20T02:08:16.823Z,11.57
2022-08-20T02:10:46.458Z,10.48
2022-08-20T02:13:15.050Z,10.80
2022-08-20T02:15:45.212Z,9.77
2022-08-20T02:18:15.760Z,11.23
2022-08-20T02:20:46.164Z,8.68
2022-08-20T02:23:15.747Z,9.48
2022-08-20T02:25:47.589Z,11.52
2022-08-20T02:28:20.897Z,10.35
2022-08-20T02:30:53.849Z,10.35
2022-08-20T02:33:24.570Z,12.82
2022-08-20T02:35:56.662Z,12.88
2022-08-20T02:38:25.958Z,12.93
2022-08-20T02:40:54.534Z,12.52
2022-08-20T02:43:23.120Z,11.43
2022-08-20T02:45:53.172Z,9.75
2022-08-20T02:48:23.476Z,9.70
2022-08-20T02:50:55.571Z,9.85
2022-08-20T02:53:24.322Z,7.30
2022-08-20T02:55:53.555Z,6.78
2022-08-20T02:58:23.428Z,9.73
2022-08-20T03:00:53.653Z,12.57
2022-08-20T03:03:22.915Z,10.18
2022-08-20T03:05:53.609Z,8.98
2022-08-20T03:08:23.591Z,8.68
2022-08-20T03:10:53.161Z,7.25
2022-08-20T03:13:23.072Z,6.03
2022-08-20T03:15:58.588Z,6.95
2022-08-20T03:18:31.509Z,6.88
2022-08-20T03:21:00.556Z,7.72
2022-08-20T03:23:30.114Z,9.25
2022-08-20T03:25:59.066Z,9.68
2022-08-20T03:28:28.145Z,9.65
2022-08-20T03:30:59.600Z,10.93
2022-08-20T03:33:29.370Z,9.52
2022-08-20T03:35:58.839Z,11.10
2022-08-20T03:38:32.615Z,11.68
2022-08-20T03:41:03.104Z,11.38
2022-08-20T03:43:32.670Z,10.85
2022-08-20T03:46:03.050Z,11.00
2022-08-20T03:48:31.768Z,12.93
2022-08-20T03:51:01.143Z,12.13
2022-08-20T03:53:31.798Z,12.77
2022-08-20T03:56:04.494Z,12.05
2022-08-20T03:58:35.029Z,14.43
2022-08-20T04:04:12.141Z,12.43
2022-08-20T04:06:41.371Z,12.18
2022-08-20T04:09:11.656Z,11.20
2022-08-20T04:11:41.258Z,9.65
2022-08-20T04:14:11.049Z,7.30
2022-08-20T04:16:40.676Z,7.93
2022-08-20T04:19:10.903Z,7.93
2022-08-20T04:21:39.785Z,7.97
2022-08-20T04:24:08.811Z,6.82
2022-08-20T04:26:51.468Z,7.15
2022-08-20T04:29:20.069Z,6.95
2022-08-20T04:31:48.699Z,7.00
2022-08-20T04:34:19.664Z,6.38
2022-08-20T04:36:48.676Z,6.63
2022-08-20T04:39:17.478Z,6.18
2022-08-20T04:41:46.359Z,7.28
2022-08-20T04:44:14.982Z,6.78
2022-08-20T04:46:43.853Z,6.72
2022-08-20T04:49:12.904Z,6.50
2022-08-20T04:51:42.893Z,6.53
2022-08-20T04:54:14.593Z,6.95
2022-08-20T04:56:43.330Z,7.25
2022-08-20T04:59:11.901Z,7.53
2022-08-20T05:01:40.440Z,7.00
2022-08-20T05:04:09.046Z,7.70
2022-08-20T05:06:37.831Z,7.78
2022-08-20T05:09:07.776Z,8.82
2022-08-20T05:11:36.864Z,8.38
2022-08-20T05:14:08.977Z,8.82
2022-08-20T05:16:41.319Z,7.88
2022-08-20T05:19:12.418Z,8.48
2022-08-20T05:21:41.437Z,9.02
2022-08-20T05:24:12.167Z,8.73
2022-08-20T05:26:41.056Z,8.63
2022-08-20T05:29:09.846Z,9.88
2022-08-20T05:31:39.488Z,9.10
2022-08-20T05:34:11.334Z,8.68
2022-08-20T05:36:41.286Z,7.97
2022-08-20T05:39:12.424Z,8.00
2022-08-20T05:41:41.579Z,7.75
2022-08-20T05:44:13.823Z,7.72
2022-08-20T05:46:44.079Z,6.55
2022-08-20T05:49:15.726Z,7.88
2022-08-20T05:51:44.652Z,8.07
2022-08-20T05:54:15.166Z,7.78
2022-08-20T05:56:44.059Z,7.38
2022-08-20T05:59:14.181Z,8.43
2022-08-20T06:01:44.081Z,8.65
2022-08-20T06:04:28.778Z,8.75
2022-08-20T06:07:02.939Z,8.32
2022-08-20T06:09:33.461Z,9.40
2022-08-20T06:12:03.995Z,8.52
2022-08-20T06:14:34.167Z,8.82
2022-08-20T06:17:08.002Z,8.25
2022-08-20T06:19:38.015Z,8.63
2022-08-20T06:22:17.691Z,7.80
2022-08-20T06:24:51.898Z,7.40
2022-08-20T06:27:20.781Z,7.25
2022-08-20T06:29:50.016Z,7.65
2022-08-20T06:32:19.986Z,9.90
2022-08-20T06:35:02.313Z,10.13
2022-08-20T06:37:33.112Z,9.30
2022-08-20T06:40:07.243Z,9.77
2022-08-20T06:42:36.887Z,9.43
2022-08-20T06:45:06.199Z,8.27
2022-08-20T06:47:35.540Z,8.27
2022-08-20T06:50:04.075Z,9.07
2022-08-20T06:52:52.401Z,8.77
2022-08-20T06:55:23.226Z,8.75
2022-08-20T06:57:59.519Z,8.63
2022-08-20T07:00:29.352Z,9.93
2022-08-20T07:02:58.230Z,7.65
2022-08-20T07:05:26.938Z,9.52
2022-08-20T07:07:55.715Z,7.72
2022-08-20T07:10:27.227Z,8.50
2022-08-20T07:12:56.127Z,8.95
2022-08-20T07:15:27.215Z,9.18
2022-08-20T07:18:01.673Z,7.93
2022-08-20T07:20:31.892Z,9.85
2022-08-20T07:23:00.752Z,12.82
2022-08-20T07:25:33.808Z,11.15
2022-08-20T07:28:03.992Z,7.93
2022-08-20T07:30:56.528Z,7.28
2022-08-20T07:33:28.317Z,6.93
2022-08-20T07:35:57.558Z,6.45
2022-08-20T07:38:27.876Z,6.63
2022-08-20T07:41:00.107Z,6.88
2022-08-20T07:43:29.370Z,6.25
2022-08-20T07:46:01.250Z,5.80
2022-08-20T07:48:32.658Z,5.70
2022-08-20T07:51:22.586Z,6.38
2022-08-20T07:54:00.671Z,6.28
2022-08-20T07:56:30.698Z,6.28
2022-08-20T07:59:01.717Z,6.90
2022-08-20T08:01:32.726Z,6.93
2022-08-20T08:04:01.470Z,6.60
2022-08-20T08:06:32.044Z,6.78
2022-08-20T08:09:05.662Z,5.78
2022-08-20T08:11:38.814Z,4.80
2022-08-20T08:14:10.799Z,4.18
2022-08-20T08:16:40.414Z,4.90
2022-08-20T08:19:12.145Z,5.18
2022-08-20T08:21:41.437Z,5.05
2022-08-20T08:24:13.466Z,4.63
2022-08-20T08:26:45.651Z,4.25
2022-08-20T08:29:14.235Z,4.22
2022-08-20T08:31:42.834Z,4.00
2022-08-20T08:34:11.788Z,4.05
2022-08-20T08:36:40.851Z,4.20
2022-08-20T08:39:09.478Z,3.45
2022-08-20T08:41:47.533Z,3.45
2022-08-20T08:44:23.518Z,3.25
2022-08-20T08:46:56.756Z,3.30
2022-08-20T08:49:37.387Z,3.35
2022-08-20T08:52:11.805Z,3.67
2022-08-20T08:54:44.085Z,3.60
2022-08-20T08:57:12.850Z,3.63
2022-08-20T08:59:58.388Z,3.00
2022-08-20T09:02:32.345Z,3.55
2022-08-20T09:05:04.441Z,3.45
2022-08-20T09:07:34.859Z,3.60
2022-08-20T09:10:04.065Z,3.40
2022-08-20T09:12:33.398Z,3.53
2022-08-20T09:15:03.656Z,3.22
2022-08-20T09:17:32.688Z,3.22
2022-08-20T09:20:01.405Z,3.22
2022-08-20T09:22:31.076Z,3.13
2022-08-20T09:25:00.467Z,3.40
2022-08-20T09:27:29.836Z,3.28
2022-08-20T09:29:58.560Z,3.25
2022-08-20T09:32:28.781Z,3.40
2022-08-20T09:34:59.158Z,2.95
2022-08-20T09:37:35.089Z,3.08
2022-08-20T09:40:08.326Z,3.60
2022-08-20T09:42:41.672Z,3.15
2022-08-20T09:45:11.848Z,3.22
2022-08-20T09:47:56.630Z,3.33
2022-08-20T09:50:26.981Z,3.03
2022-08-20T09:52:56.919Z,3.15
2022-08-20T09:55:29.994Z,3.20
2022-08-20T09:57:59.216Z,3.13
2022-08-20T10:00:28.067Z,3.08
2022-08-20T10:02:58.291Z,3.08
2022-08-20T10:05:27.004Z,2.83
2022-08-20T10:07:55.859Z,2.85
2022-08-20T10:10:24.841Z,2.80
2022-08-20T10:12:55.003Z,2.80
2022-08-20T10:15:23.911Z,3.60
2022-08-20T10:17:53.105Z,3.40
2022-08-20T10:20:23.524Z,2.85
2022-08-20T10:22:52.568Z,2.60
2022-08-20T10:25:21.762Z,2.70
2022-08-20T10:27:50.529Z,2.38
2022-08-20T10:30:19.565Z,3.28
2022-08-20T10:32:50.189Z,2.55
2022-08-20T10:35:19.801Z,2.63
2022-08-20T10:37:50.162Z,2.10
2022-08-20T10:40:19.291Z,2.28
2022-08-20T10:42:48.060Z,2.75
2022-08-20T10:45:17.663Z,2.90
2022-08-20T10:47:46.783Z,2.65
2022-08-20T10:50:20.165Z,2.50
2022-08-20T10:52:50.463Z,2.85
2022-08-20T10:55:20.152Z,2.05
2022-08-20T10:57:51.395Z,2.70
2022-08-20T11:00:21.552Z,2.70
2022-08-20T11:02:52.226Z,2.28
2022-08-20T11:05:21.133Z,2.10
2022-08-20T11:07:59.816Z,2.45
2022-08-20T11:10:31.111Z,2.00
2022-08-20T11:12:59.984Z,2.03
2022-08-20T11:15:29.587Z,2.15
2022-08-20T11:17:58.616Z,2.10
2022-08-20T11:20:28.594Z,2.10
2022-08-20T11:23:06.486Z,1.80
2022-08-20T11:25:35.375Z,2.17
2022-08-20T11:28:04.823Z,2.00
2022-08-20T11:30:36.843Z,1.90
2022-08-20T11:33:09.323Z,1.90
2022-08-20T11:35:48.448Z,1.52
2022-08-20T11:38:19.516Z,1.48
2022-08-20T11:40:48.435Z,1.63
2022-08-20T11:43:18.271Z,1.27
2022-08-20T11:45:49.374Z,1.42
2022-08-20T11:48:18.376Z,1.58
2022-08-20T11:50:47.453Z,1.20
2022-08-20T11:53:22.349Z,1.30
2022-08-20T11:55:51.519Z,1.48
2022-08-20T11:58:20.283Z,1.45
2022-08-20T12:00:49.249Z,1.75
2022-08-20T12:03:22.315Z,2.05
2022-08-20T12:05:51.240Z,1.55
2022-08-20T12:08:27.021Z,1.92
2022-08-20T12:10:58.053Z,1.90
2022-08-20T12:13:30.746Z,1.98
2022-08-20T12:16:16.772Z,2.28
2022-08-20T12:18:46.446Z,1.75
2022-08-20T12:21:15.214Z,1.65
2022-08-20T12:23:45.760Z,1.65
2022-08-20T12:26:16.859Z,1.58
2022-08-20T12:28:45.570Z,1.60
2022-08-20T12:31:14.258Z,1.52
2022-08-20T12:33:43.064Z,2.10
2022-08-20T12:36:12.340Z,1.92
2022-08-20T12:38:40.991Z,1.83
2022-08-20T12:41:11.130Z,1.80
2022-08-20T12:43:44.040Z,1.80
2022-08-20T12:46:12.819Z,2.13
2022-08-20T12:48:42.182Z,2.40
2022-08-20T12:51:11.491Z,3.10
2022-08-20T12:53:40.259Z,3.75
2022-08-20T12:56:10.792Z,3.30
2022-08-20T12:58:41.838Z,3.25
2022-08-20T13:01:10.475Z,3.50
2022-08-20T13:03:43.136Z,3.20
2022-08-20T13:06:13.932Z,2.88
2022-08-20T13:08:43.051Z,3.35
2022-08-20T13:11:13.042Z,3.40
2022-08-20T13:13:43.744Z,3.47
2022-08-20T13:16:12.419Z,3.20
2022-08-20T13:18:41.366Z,3.17
2022-08-20T13:21:10.307Z,4.22
2022-08-20T13:23:38.886Z,3.40
2022-08-20T13:26:07.800Z,3.17
2022-08-20T13:28:37.798Z,2.63
2022-08-20T13:31:06.574Z,2.63
2022-08-20T13:33:35.229Z,2.35
2022-08-20T13:36:03.898Z,2.67
2022-08-20T13:38:32.473Z,1.60
2022-08-20T13:41:01.026Z,2.42
2022-08-20T13:43:29.725Z,2.65
2022-08-20T13:45:59.807Z,2.60
2022-08-20T13:48:28.318Z,2.58
2022-08-20T13:50:57.010Z,2.90
2022-08-20T13:53:26.003Z,2.30
2022-08-20T13:55:54.630Z,2.10
2022-08-20T13:58:24.049Z,2.40
2022-08-20T14:00:52.623Z,2.35
2022-08-20T14:03:25.295Z,2.30
2022-08-20T14:05:54.513Z,2.22
2022-08-20T14:08:25.512Z,2.40
2022-08-20T14:10:54.242Z,2.30
2022-08-20T14:13:25.915Z,2.60
2022-08-20T14:15:55.299Z,2.45
2022-08-20T14:18:25.355Z,2.38
2022-08-20T14:20:53.975Z,1.98
2022-08-20T14:23:22.882Z,2.60
2022-08-20T14:25:51.612Z,2.47
2022-08-20T14:28:22.386Z,2.38
2022-08-20T14:30:53.483Z,2.00
2022-08-20T14:33:25.040Z,2.03
2022-08-20T14:35:54.682Z,2.10
2022-08-20T14:38:23.297Z,2.15
2022-08-20T14:40:51.992Z,1.90
2022-08-20T14:43:20.766Z,2.40
2022-08-20T14:45:49.333Z,2.08
2022-08-20T14:48:17.951Z,2.00
2022-08-20T14:50:47.937Z,1.65
2022-08-20T14:53:16.513Z,2.53
2022-08-20T14:55:45.143Z,2.00
2022-08-20T14:58:15.436Z,2.08
2022-08-20T15:00:44.829Z,2.28
2022-08-20T15:03:14.547Z,2.30
2022-08-20T15:05:43.985Z,2.22
2022-08-20T15:08:14.255Z,1.90
2022-08-20T15:10:43.031Z,2.10
2022-08-20T15:13:11.649Z,1.70
2022-08-20T15:15:40.834Z,1.58
2022-08-20T15:18:09.615Z,1.70
2022-08-20T15:20:38.795Z,1.40
2022-08-20T15:23:07.546Z,1.15
2022-08-20T15:25:38.468Z,1.58
2022-08-20T15:28:08.869Z,1.15
2022-08-20T15:30:38.587Z,1.30
2022-08-20T15:33:07.649Z,1.50
2022-08-20T15:35:36.819Z,1.10
2022-08-20T15:38:05.449Z,1.00
2022-08-20T15:40:35.457Z,1.75
2022-08-20T15:43:06.421Z,1.10
2022-08-20T15:45:35.967Z,1.30
2022-08-20T15:48:11.271Z,1.50
2022-08-20T15:50:55.874Z,1.10
2022-08-20T15:53:30.061Z,1.48
2022-08-20T15:56:05.628Z,1.50
2022-08-20T15:58:40.937Z,1.40
2022-08-20T16:01:24.866Z,1.50
2022-08-20T16:04:46.030Z,1.40
2022-08-20T16:07:21.029Z,1.25
2022-08-20T16:10:04.083Z,1.10
2022-08-20T16:12:35.340Z,1.30
2022-08-20T16:15:10.162Z,1.30
2022-08-20T16:17:45.146Z,1.20
2022-08-20T16:20:32.892Z,0.90
2022-08-20T16:23:04.926Z,1.55
2022-08-20T16:25:46.774Z,1.63
2022-08-20T16:28:24.631Z,1.33
2022-08-20T16:31:03.349Z,1.20
2022-08-20T16:33:38.329Z,1.50
2022-08-20T16:36:12.712Z,1.05
2022-08-20T16:38:48.141Z,1.13
2022-08-20T16:41:23.043Z,1.30
2022-08-20T16:43:54.940Z,0.80
2022-08-20T16:46:29.033Z,1.15
2022-08-20T16:48:59.995Z,1.08
2022-08-20T16:51:36.793Z,1.10
2022-08-20T16:54:06.656Z,0.90
2022-08-20T16:56:37.785Z,1.10
2022-08-20T16:59:09.518Z,1.23
2022-08-20T17:01:40.223Z,0.90
2022-08-20T17:04:09.500Z,0.93
2022-08-20T17:06:44.723Z,1.17
2022-08-20T17:09:22.319Z,0.63
2022-08-20T17:11:53.087Z,1.17
2022-08-20T17:14:21.724Z,0.80
2022-08-20T17:16:53.952Z,1.00
2022-08-20T17:19:29.279Z,0.80
2022-08-20T17:22:08.751Z,0.98
2022-08-20T17:24:37.870Z,0.80
2022-08-20T17:27:13.500Z,0.90
2022-08-20T17:30:20.248Z,1.42
2022-08-20T17:33:01.823Z,1.05
2022-08-20T17:35:34.275Z,1.15
2022-08-20T17:38:04.234Z,1.02
2022-08-20T17:40:46.002Z,1.00
2022-08-20T17:43:27.705Z,0.93
2022-08-20T17:45:57.639Z,0.88
2022-08-20T17:48:33.613Z,0.90
2022-08-20T17:51:10.819Z,0.93
2022-08-20T17:53:44.716Z,0.82
2022-08-20T17:56:21.063Z,1.00
2022-08-20T17:58:54.992Z,0.77
2022-08-20T18:01:26.043Z,0.65
2022-08-20T18:03:56.246Z,0.98
2022-08-20T18:06:32.360Z,0.80
2022-08-20T18:09:06.009Z,0.93
2022-08-20T18:11:40.630Z,0.70
2022-08-20T18:14:36.107Z,1.00
2022-08-20T18:17:15.638Z,0.93
2022-08-20T18:20:10.537Z,1.00
2022-08-20T18:22:48.138Z,1.30
2022-08-20T18:25:29.308Z,1.35
2022-08-20T18:28:04.848Z,1.25
2022-08-20T18:30:34.468Z,1.90
2022-08-20T18:33:09.015Z,1.33
2022-08-20T18:35:45.819Z,1.13
2022-08-20T18:38:28.503Z,1.55
2022-08-20T18:41:08.295Z,1.40
2022-08-20T18:43:36.975Z,1.20
2022-08-20T18:46:21.700Z,1.23
2022-08-20T18:48:57.104Z,1.33
2022-08-20T18:51:33.991Z,1.63
2022-08-20T18:54:02.639Z,1.40
2022-08-20T18:56:38.321Z,1.25
2022-08-20T18:59:13.190Z,1.50
2022-08-20T19:01:44.016Z,1.65
2022-08-20T19:04:27.638Z,1.50
2022-08-20T19:07:02.970Z,1.30
2022-08-20T19:09:56.145Z,1.65
2022-08-20T19:12:42.119Z,1.42
2022-08-20T19:15:16.931Z,1.40
2022-08-20T19:17:56.998Z,1.27
2022-08-20T19:20:29.447Z,1.63
2022-08-20T19:23:06.808Z,1.42
2022-08-20T19:25:38.778Z,1.48
2022-08-20T19:28:16.227Z,1.60
2022-08-20T19:30:45.157Z,1.58
2022-08-20T19:33:14.074Z,1.70
2022-08-20T19:35:42.921Z,2.97
2022-08-20T19:38:17.945Z,2.33
2022-08-20T19:40:46.974Z,1.98
2022-08-20T19:43:21.886Z,1.98
2022-08-20T19:45:53.043Z,2.67
2022-08-20T19:48:40.571Z,3.28
2022-08-20T19:51:16.350Z,1.42
2022-08-20T19:53:49.855Z,2.45
2022-08-20T19:56:21.544Z,1.60
2022-08-20T19:59:00.149Z,1.90
2022-08-20T20:01:29.669Z,2.20
2022-08-20T20:04:01.054Z,1.70
2022-08-20T20:06:33.980Z,1.60
2022-08-20T20:09:06.915Z,1.75
2022-08-20T20:11:38.957Z,1.95
2022-08-20T20:14:10.474Z,1.92
2022-08-20T20:16:41.183Z,1.45
2022-08-20T20:19:28.615Z,1.77
2022-08-20T20:22:16.104Z,1.80
2022-08-20T20:25:00.454Z,1.75
2022-08-20T20:27:30.160Z,1.60
2022-08-20T20:30:03.300Z,1.83
2022-08-20T20:32:34.135Z,1.83
2022-08-20T20:35:06.353Z,1.70
2022-08-20T20:37:48.866Z,1.65
2022-08-20T20:40:26.277Z,2.13
2022-08-20T20:43:06.210Z,2.30
2022-08-20T20:45:37.629Z,2.05
2022-08-20T20:48:18.327Z,1.67
2022-08-20T20:50:50.100Z,1.88
2022-08-20T20:53:51.021Z,1.70
2022-08-20T20:56:33.076Z,1.83
2022-08-20T20:59:06.148Z,2.17
2022-08-20T21:01:49.555Z,1.83
2022-08-20T21:04:20.562Z,2.10
2022-08-20T21:06:49.886Z,2.53
2022-08-20T21:09:20.834Z,2.47
2022-08-20T21:11:51.314Z,2.00
2022-08-20T21:14:20.209Z,2.22
2022-08-20T21:16:49.280Z,2.65
2022-08-20T21:19:18.887Z,2.63
2022-08-20T21:21:47.576Z,2.25
2022-08-20T21:24:16.260Z,2.20
2022-08-20T21:26:45.485Z,2.22
2022-08-20T21:29:18.551Z,2.30
2022-08-20T21:31:47.690Z,2.72
2022-08-20T21:34:17.571Z,2.30
2022-08-20T21:36:46.641Z,1.90
2022-08-20T21:39:15.564Z,2.15
2022-08-20T21:41:45.466Z,2.63
2022-08-20T21:44:21.323Z,2.00
2022-08-20T21:46:50.824Z,1.92
2022-08-20T21:49:20.830Z,2.15
2022-08-20T21:51:50.114Z,2.00
2022-08-20T21:54:20.042Z,2.50
2022-08-20T21:56:53.199Z,1.75
2022-08-20T21:59:25.348Z,2.63
2022-08-20T22:01:54.121Z,2.13
2022-08-20T22:04:23.295Z,2.30
2022-08-20T22:06:52.306Z,2.10
2022-08-20T22:09:21.100Z,2.67
2022-08-20T22:11:53.993Z,2.47
2022-08-20T22:14:25.254Z,2.40
2022-08-20T22:16:53.888Z,2.53
2022-08-20T22:19:22.774Z,2.92
2022-08-20T22:21:54.214Z,2.53
2022-08-20T22:24:24.306Z,2.97
2022-08-20T22:26:52.938Z,2.28
2022-08-20T22:29:21.968Z,2.03
2022-08-20T22:31:52.088Z,2.13
2022-08-20T22:34:21.885Z,2.80
2022-08-20T22:37:00.263Z,2.53
2022-08-20T22:39:29.250Z,2.75
2022-08-20T22:41:59.853Z,2.20
2022-08-20T22:44:28.708Z,2.83
2022-08-20T22:47:04.023Z,2.80
2022-08-20T22:49:35.298Z,3.20
2022-08-20T22:52:04.511Z,3.40
2022-08-20T22:54:34.382Z,2.53
2022-08-20T22:57:03.379Z,2.78
2022-08-20T22:59:32.976Z,2.95
2022-08-20T23:02:20.678Z,2.78
2022-08-20T23:04:49.370Z,2.47
2022-08-20T23:07:21.125Z,2.45
2022-08-20T23:09:49.802Z,2.90
2022-08-20T23:12:18.682Z,3.38
2022-08-20T23:14:47.368Z,2.88
2022-08-20T23:17:19.671Z,2.85
2022-08-20T23:19:49.699Z,3.30
2022-08-20T23:22:19.556Z,2.60
2022-08-20T23:24:48.942Z,2.65
2022-08-20T23:27:19.573Z,3.35
2022-08-20T23:29:48.998Z,3.17
2022-08-20T23:32:19.744Z,3.00
2022-08-20T23:34:48.604Z,3.33
2022-08-20T23:37:19.291Z,3.42
2022-08-20T23:39:49.918Z,2.95
2022-08-20T23:42:18.886Z,3.00
2022-08-20T23:44:47.514Z,3.20
2022-08-20T23:47:23.094Z,3.53
2022-08-20T23:49:52.073Z,3.22
2022-08-20T23:52:20.708Z,2.67
2022-08-20T23:54:49.425Z,3.10
2022-08-20T23:57:21.095Z,4.22
2022-08-20T23:59:52.930Z,3.70
